Time;durP1;ratioP1;P1;durP2;ratioP2;P2;SDS_P1;SDS_P2;PMS_P1;PMS_P2;Temp;Humidity;BMP_temperature;BMP_pressure;BME280_temperature;BME280_humidity;BME280_pressure;Samples;Min_cycle;Max_cycle;Signal;HPM_P1;HPM_P2
2022/02/06 00:00:31;;;;;;;;;;;;;;;-5.45;93.81;98650.13;5052090;28;19925;-64
2022/02/06 00:02:58;;;;;;;;;;;;;;;-5.42;94.08;98647.50;5051885;28;19928;-62
2022/02/06 00:05:25;;;;;;;;;;;;;;;-5.47;93.82;98645.94;5052198;28;19995;-62
2022/02/06 00:07:51;;;;;;;;;;;;;;;-5.48;94.18;98643.41;5051961;28;20387;-65
2022/02/06 00:10:19;;;;;;;;;;;;;;;-5.48;93.95;98651.84;5052069;28;19924;-62
2022/02/06 00:12:46;;;;;;;;;;;;;;;-5.49;94.38;98647.66;5053658;28;19925;-66
2022/02/06 00:15:13;;;;;;;;;;;;;;;-5.50;94.05;98648.53;5055896;28;19970;-62
2022/02/06 00:17:41;;;;;;;;;;;;;;;-5.45;93.74;98652.66;5055802;28;19971;-62
2022/02/06 00:20:08;;;;;;;;;;;;;;;-5.47;93.77;98645.94;5055925;28;19929;-62
2022/02/06 00:22:38;;;;;;;;;;;;;;;-5.50;93.73;98646.00;5055838;28;19924;-62
2022/02/06 00:25:19;;;;;;;;;;;;;;;-5.58;93.72;98636.91;5055739;28;20374;-66
2022/02/06 00:27:57;;;;;;;;;;;;;;;-5.63;93.79;98639.53;5055910;28;19925;-66
2022/02/06 00:30:30;;;;;;;;;;;;;;;-5.68;93.72;98643.88;5055526;28;19925;-66
2022/02/06 00:33:03;;;;;;;;;;;;;;;-5.70;93.65;98641.41;5055575;28;19971;-66
2022/02/06 00:38:24;;;;;;;;;;;;;;;-5.76;94.03;98643.22;5038035;28;19925;-66
2022/02/06 00:41:12;;;;;;;;;;;;;;;-5.80;94.04;98650.06;5055425;28;19932;-61
2022/02/06 00:43:39;;;;;;;;;;;;;;;-5.84;93.69;98645.09;5055220;28;19929;-64
2022/02/06 00:46:07;;;;;;;;;;;;;;;-5.84;94.01;98647.63;5055549;28;19924;-67
2022/02/06 00:48:39;;;;;;;;;;;;;;;-5.81;94.69;98647.56;5055485;28;19925;-64
2022/02/06 00:51:10;;;;;;;;;;;;;;;-5.83;94.30;98649.28;5055309;28;19972;-61
2022/02/06 00:53:37;;;;;;;;;;;;;;;-5.71;93.98;98644.78;5055273;28;19932;-62
2022/02/06 00:56:04;;;;;;;;;;;;;;;-5.69;94.37;98647.28;5054726;28;20286;-62
2022/02/06 00:58:30;;;;;;;;;;;;;;;-5.64;93.97;98650.56;5055046;28;19929;-64
2022/02/06 01:00:57;;;;;;;;;;;;;;;-5.59;93.73;98652.97;5055131;28;19924;-61
2022/02/06 01:03:23;;;;;;;;;;;;;;;-5.70;94.16;98655.78;5054783;28;20395;-61
2022/02/06 01:05:51;;;;;;;;;;;;;;;-5.62;93.66;98653.88;5054863;28;20287;-61
2022/02/06 01:08:18;;;;;;;;;;;;;;;-5.59;94.02;98651.28;5054774;28;19924;-61
2022/02/06 01:10:44;;;;;;;;;;;;;;;-5.64;93.90;98645.47;5054709;28;19925;-66
2022/02/06 01:13:18;;;;;;;;;;;;;;;-5.67;93.74;98647.28;5054615;28;20303;-62
2022/02/06 01:15:51;;;;;;;;;;;;;;;-5.67;94.26;98643.03;5054612;28;19925;-66
2022/02/06 01:18:24;;;;;;;;;;;;;;;-5.70;93.88;98643.09;5054562;28;19925;-63
2022/02/06 01:20:56;;;;;;;;;;;;;;;-5.73;93.95;98638.09;5054802;28;20387;-61
2022/02/06 01:23:26;;;;;;;;;;;;;;;-5.70;93.89;98638.03;5054204;28;19925;-61
2022/02/06 01:25:57;;;;;;;;;;;;;;;-5.70;93.86;98638.03;5054498;28;20399;-61
2022/02/06 01:28:31;;;;;;;;;;;;;;;-5.67;94.25;98642.19;5054823;28;19982;-61
2022/02/06 01:31:04;;;;;;;;;;;;;;;-5.64;94.07;98639.59;5054398;28;19931;-61
2022/02/06 01:33:35;;;;;;;;;;;;;;;-5.67;93.71;98637.97;5054452;28;19952;-61
2022/02/06 01:36:09;;;;;;;;;;;;;;;-5.68;93.99;98631.22;5054445;28;19935;-62
2022/02/06 01:38:49;;;;;;;;;;;;;;;-5.67;94.14;98632.88;5054323;28;19925;-61
2022/02/06 01:41:19;;;;;;;;;;;;;;;-5.66;93.84;98636.25;5054471;28;19924;-66
2022/02/06 01:43:51;;;;;;;;;;;;;;;-5.60;94.01;98634.44;5054017;28;19925;-65
2022/02/06 01:46:30;;;;;;;;;;;;;;;-5.58;93.60;98637.72;5054451;28;19928;-67
2022/02/06 02:00:31;;;;;;;;;;;;;;;-5.50;93.96;98624.88;5044226;28;20082;-66
2022/02/06 02:03:06;;;;;;;;;;;;;;;-5.56;93.43;98618.25;5054005;28;20070;-62
2022/02/06 02:08:55;;;;;;;;;;;;;;;-5.56;93.33;98608.13;5033177;28;19931;-64
2022/02/06 02:17:27;;;;;;;;;;;;;;;-5.58;93.72;98601.44;5053458;28;19924;-62
2022/02/06 02:23:06;;;;;;;;;;;;;;;-5.55;93.50;98591.22;5053480;28;19925;-64
2022/02/06 02:26:02;;;;;;;;;;;;;;;-5.59;93.51;98585.41;5053123;28;19978;-63
2022/02/06 02:45:18;;;;;;;;;;;;;;;-5.62;94.02;98572.81;5172424;27;19930;-67
2022/02/06 02:47:48;;;;;;;;;;;;;;;-5.50;93.76;98572.50;5172454;27;19945;-66
2022/02/06 02:50:20;;;;;;;;;;;;;;;-5.47;93.28;98574.97;5172246;27;19923;-67
2022/02/06 02:52:57;;;;;;;;;;;;;;;-5.47;93.65;98574.16;5172097;27;19927;-66
2022/02/06 02:55:40;;;;;;;;;;;;;;;-5.42;93.14;98568.94;5172484;27;19923;-66
2022/02/06 02:58:20;;;;;;;;;;;;;;;-5.47;93.62;98572.44;5172140;27;19927;-66
2022/02/06 03:00:55;;;;;;;;;;;;;;;-5.42;93.37;98571.47;5172252;27;19929;-67
2022/02/06 03:03:25;;;;;;;;;;;;;;;-5.44;93.70;98579.13;5172244;27;19930;-67
2022/02/06 03:05:55;;;;;;;;;;;;;;;-5.54;93.97;98578.53;5171952;27;19981;-68
2022/02/06 03:08:22;;;;;;;;;;;;;;;-5.42;93.50;98576.53;5171784;27;19923;-67
2022/02/06 03:10:51;;;;;;;;;;;;;;;-5.40;93.14;98574.81;5171805;27;20011;-63
2022/02/06 03:13:20;;;;;;;;;;;;;;;-5.42;93.40;98579.06;5171846;27;19966;-67
2022/02/06 03:15:51;;;;;;;;;;;;;;;-5.44;93.60;98578.31;5171770;27;19979;-67
2022/02/06 03:18:20;;;;;;;;;;;;;;;-5.40;93.75;98580.69;5171916;27;19931;-67
2022/02/06 03:20:47;;;;;;;;;;;;;;;-5.45;94.09;98574.09;5171804;27;20292;-65
2022/02/06 03:23:15;;;;;;;;;;;;;;;-5.47;93.85;98567.38;5171784;27;19923;-67
2022/02/06 03:25:47;;;;;;;;;;;;;;;-5.43;93.76;98573.19;5171603;27;20014;-67
2022/02/06 03:28:14;;;;;;;;;;;;;;;-5.41;93.59;98576.50;5171972;27;20280;-61
2022/02/06 03:30:41;;;;;;;;;;;;;;;-5.37;93.28;98569.66;5171763;27;20314;-68
2022/02/06 03:33:07;;;;;;;;;;;;;;;-5.40;93.66;98565.50;5171273;27;19923;-64
2022/02/06 03:35:34;;;;;;;;;;;;;;;-5.41;93.92;98571.44;5171577;27;19923;-61
2022/02/06 03:38:01;;;;;;;;;;;;;;;-5.43;93.75;98570.66;5171324;27;19923;-60
2022/02/06 03:40:34;;;;;;;;;;;;;;;-5.37;94.08;98573.03;5171399;27;19923;-61
2022/02/06 03:43:06;;;;;;;;;;;;;;;-5.38;93.84;98560.41;5171354;27;19937;-61
2022/02/06 03:45:39;;;;;;;;;;;;;;;-5.39;93.96;98566.34;5157363;27;19958;-66
2022/02/06 03:48:20;;;;;;;;;;;;;;;-5.33;94.08;98556.03;5157202;27;20006;-63
2022/02/06 03:50:50;;;;;;;;;;;;;;;-5.35;93.90;98558.59;5157226;27;19968;-64
2022/02/06 03:53:19;;;;;;;;;;;;;;;-5.30;93.25;98555.97;5157200;27;20265;-62
2022/02/06 03:55:48;;;;;;;;;;;;;;;-5.29;93.80;98557.63;5157218;27;19923;-65
2022/02/06 03:58:15;;;;;;;;;;;;;;;-5.26;92.89;98552.47;5157261;27;20010;-62
2022/02/06 04:00:42;;;;;;;;;;;;;;;-5.31;93.33;98546.69;5157052;27;20354;-67
2022/02/06 04:03:08;;;;;;;;;;;;;;;-5.36;93.55;98567.09;5156965;27;19929;-67
2022/02/06 04:05:37;;;;;;;;;;;;;;;-5.34;93.26;98555.22;5156794;27;20262;-63
2022/02/06 04:08:06;;;;;;;;;;;;;;;-5.36;93.79;98546.00;5157058;27;19945;-67
2022/02/06 04:10:36;;;;;;;;;;;;;;;-5.38;93.41;98547.72;5156890;27;19929;-67
2022/02/06 04:13:05;;;;;;;;;;;;;;;-5.35;93.31;98540.84;5156823;27;19923;-63
2022/02/06 04:15:39;;;;;;;;;;;;;;;-5.34;93.87;98531.56;5156790;27;19923;-62
2022/02/06 04:18:13;;;;;;;;;;;;;;;-5.32;93.67;98530.66;5156533;27;19923;-67
2022/02/06 04:20:39;;;;;;;;;;;;;;;-5.31;93.84;98536.56;5156868;27;19930;-67
2022/02/06 04:23:06;;;;;;;;;;;;;;;-5.36;93.74;98533.31;5156773;27;19923;-65
2022/02/06 04:25:33;;;;;;;;;;;;;;;-5.32;93.55;98532.34;5156636;27;19968;-62
2022/02/06 04:27:59;;;;;;;;;;;;;;;-5.38;93.54;98532.50;5129366;22;19936;-67
2022/02/06 04:30:27;;;;;;;;;;;;;;;-5.36;93.84;98535.84;5074417;28;19978;-65
2022/02/06 04:32:54;;;;;;;;;;;;;;;-5.36;93.89;98531.59;5074628;28;19924;-65
2022/02/06 04:35:21;;;;;;;;;;;;;;;-5.37;94.02;98527.41;5074415;28;19924;-66
2022/02/06 04:38:03;;;;;;;;;;;;;;;-5.31;93.91;98531.50;5074134;28;20372;-65
2022/02/06 04:40:43;;;;;;;;;;;;;;;-5.31;93.52;98526.41;5074551;28;19951;-64
2022/02/06 04:43:31;;;;;;;;;;;;;;;-5.36;93.55;98533.31;5074291;28;19925;-64
2022/02/06 04:46:25;;;;;;;;;;;;;;;-5.27;93.45;98545.72;5074367;28;19928;-64
2022/02/06 04:49:36;;;;;;;;;;;;;;;-5.32;93.45;98542.47;5074384;28;19924;-65
2022/02/06 04:52:43;;;;;;;;;;;;;;;-5.26;93.34;98540.63;5074139;28;20011;-65
2022/02/06 05:11:47;;;;;;;;;;;;;;;-5.27;93.83;98527.97;5073824;28;19935;-64
2022/02/06 05:22:52;;;;;;;;;;;;;;;-5.26;93.52;98509.38;5073667;28;19930;-65
2022/02/06 05:25:39;;;;;;;;;;;;;;;-5.27;93.60;98507.69;5073609;28;20320;-65
2022/02/06 05:30:52;;;;;;;;;;;;;;;-5.30;94.04;98503.53;5062810;28;19932;-66
2022/02/06 05:33:19;;;;;;;;;;;;;;;-5.29;93.24;98510.31;5072987;28;19928;-66
2022/02/06 05:35:47;;;;;;;;;;;;;;;-5.31;93.44;98496.00;5073195;28;20295;-66
2022/02/06 05:38:13;;;;;;;;;;;;;;;-5.26;93.73;98494.19;5073036;28;19925;-64
2022/02/06 05:40:40;;;;;;;;;;;;;;;-5.21;93.28;98494.03;5073192;28;19929;-65
2022/02/06 05:43:06;;;;;;;;;;;;;;;-5.25;93.32;98493.28;5073243;28;19925;-65
2022/02/06 05:45:33;;;;;;;;;;;;;;;-5.24;93.34;98494.97;5073113;28;19947;-64
2022/02/06 05:47:59;;;;;;;;;;;;;;;-5.23;93.21;98489.00;5072956;28;20402;-64
2022/02/06 05:50:27;;;;;;;;;;;;;;;-5.23;93.25;98493.25;5073226;28;19947;-65
2022/02/06 05:52:55;;;;;;;;;;;;;;;-5.24;93.16;98492.44;5072919;28;19924;-64
2022/02/06 05:55:22;;;;;;;;;;;;;;;-5.22;93.46;98492.38;5072998;28;19924;-66
2022/02/06 05:57:48;;;;;;;;;;;;;;;-5.24;93.14;98489.91;5072751;28;19931;-65
2022/02/06 06:00:15;;;;;;;;;;;;;;;-5.19;93.16;98487.22;5072778;28;19925;-66
2022/02/06 06:02:42;;;;;;;;;;;;;;;-5.17;93.16;98478.69;5073128;28;19947;-67
2022/02/06 06:05:09;;;;;;;;;;;;;;;-5.18;92.53;98481.28;5072792;28;19924;-67
2022/02/06 06:07:40;;;;;;;;;;;;;;;-5.17;92.56;98476.16;5072430;28;19924;-65
2022/02/06 06:10:09;;;;;;;;;;;;;;;-5.15;93.37;98469.34;5072891;28;19924;-66
2022/02/06 06:12:35;;;;;;;;;;;;;;;-5.21;93.06;98463.59;5072914;28;19924;-67
2022/02/06 06:15:02;;;;;;;;;;;;;;;-5.26;93.55;98461.22;5072640;28;20298;-65
2022/02/06 06:17:28;;;;;;;;;;;;;;;-5.17;92.60;98463.47;5072937;28;19924;-65
2022/02/06 06:19:56;;;;;;;;;;;;;;;-5.21;92.65;98454.31;5072874;28;19986;-65
2022/02/06 06:22:23;;;;;;;;;;;;;;;-5.26;92.53;98448.53;5072663;28;19960;-66
2022/02/06 06:24:54;;;;;;;;;;;;;;;-5.26;92.75;98446.00;5072620;28;19932;-65
2022/02/06 06:27:23;;;;;;;;;;;;;;;-5.21;92.66;98446.72;5072703;28;19932;-65
2022/02/06 06:29:50;;;;;;;;;;;;;;;-5.22;92.33;98446.75;5072505;28;19924;-65
2022/02/06 06:32:16;;;;;;;;;;;;;;;-5.40;93.29;98446.38;5072494;28;19931;-65
2022/02/06 06:34:43;;;;;;;;;;;;;;;-5.28;93.21;98443.50;5072427;28;19924;-66
2022/02/06 06:37:09;;;;;;;;;;;;;;;-5.28;93.55;98443.50;5072622;28;19932;-66
2022/02/06 06:39:40;;;;;;;;;;;;;;;-5.20;92.87;98447.53;5072465;28;19924;-65
2022/02/06 06:42:08;;;;;;;;;;;;;;;-5.26;92.86;98451.06;5072560;28;19985;-65
2022/02/06 06:44:36;;;;;;;;;;;;;;;-5.25;93.01;98447.66;5072172;28;19932;-66
2022/02/06 06:47:03;;;;;;;;;;;;;;;-5.16;92.64;98447.41;5072129;28;19924;-65
2022/02/06 06:49:29;;;;;;;;;;;;;;;-5.25;92.47;98448.47;5072454;28;19925;-66
2022/02/06 06:51:56;;;;;;;;;;;;;;;-5.16;92.15;98439.81;5072173;28;19924;-66
2022/02/06 06:54:23;;;;;;;;;;;;;;;-5.11;92.62;98439.66;5072062;28;20278;-65
2022/02/06 06:56:55;;;;;;;;;;;;;;;-5.17;92.02;98437.31;5072181;28;19980;-65
2022/02/06 06:59:42;;;;;;;;;;;;;;;-5.16;92.63;98439.81;5072375;28;19951;-65
2022/02/06 07:02:18;;;;;;;;;;;;;;;-5.11;92.20;98435.44;5072303;28;19959;-65
2022/02/06 07:04:45;;;;;;;;;;;;;;;-5.17;92.20;98430.53;5072019;28;19924;-65
2022/02/06 07:07:12;;;;;;;;;;;;;;;-5.21;92.72;98428.97;5072187;28;19924;-66
2022/02/06 07:09:38;;;;;;;;;;;;;;;-5.25;92.14;98419.78;5072429;28;19924;-65
2022/02/06 07:12:06;;;;;;;;;;;;;;;-5.21;92.82;98418.81;5072103;28;20461;-65
2022/02/06 07:14:33;;;;;;;;;;;;;;;-5.14;92.48;98414.38;5071973;28;20383;-65
2022/02/06 07:16:59;;;;;;;;;;;;;;;-5.17;92.50;98414.47;5072306;28;19925;-65
2022/02/06 07:19:27;;;;;;;;;;;;;;;-5.19;92.14;98409.44;5073193;28;19925;-66
2022/02/06 07:21:55;;;;;;;;;;;;;;;-5.18;92.60;98408.59;5076061;28;19924;-67
2022/02/06 07:24:25;;;;;;;;;;;;;;;-5.12;92.08;98408.41;5075816;28;19935;-66
2022/02/06 07:29:25;;;;;;;;;;;;;;;-5.31;92.86;98404.75;5074002;28;19950;-68
2022/02/06 07:31:54;;;;;;;;;;;;;;;-5.15;91.98;98403.44;5075482;28;19925;-67
2022/02/06 07:34:20;;;;;;;;;;;;;;;-5.17;92.35;98397.56;5075408;28;20363;-66
2022/02/06 07:36:48;;;;;;;;;;;;;;;-5.16;92.03;98406.84;5075448;28;20393;-62
2022/02/06 07:39:15;;;;;;;;;;;;;;;-5.19;92.15;98396.78;5055422;28;20418;-67
2022/02/06 07:41:41;;;;;;;;;;;;;;;-5.11;92.24;98397.41;5055673;28;19924;-61
2022/02/06 07:44:09;;;;;;;;;;;;;;;-5.12;92.14;98395.72;5055299;28;19925;-67
2022/02/06 07:46:43;;;;;;;;;;;;;;;-5.06;91.20;98398.09;5055369;28;20371;-64
2022/02/06 07:49:09;;;;;;;;;;;;;;;-5.16;91.81;98391.63;5055393;28;19947;-63
2022/02/06 07:51:37;;;;;;;;;;;;;;;-5.06;92.13;98393.03;5055464;28;19948;-67
2022/02/06 07:54:05;;;;;;;;;;;;;;;-5.10;90.74;98386.38;5055344;28;19924;-65
2022/02/06 07:56:31;;;;;;;;;;;;;;;-5.00;90.69;98386.94;5055193;28;19924;-61
2022/02/06 07:58:58;;;;;;;;;;;;;;;-4.96;91.36;98392.72;5054905;28;19940;-66
2022/02/06 08:01:25;;;;;;;;;;;;;;;-4.96;90.82;98397.81;5055227;28;19925;-67
2022/02/06 08:03:51;;;;;;;;;;;;;;;-4.99;91.74;98390.28;5054957;28;19931;-64
2022/02/06 08:06:18;;;;;;;;;;;;;;;-4.98;91.29;98391.94;5055110;28;19925;-68
2022/02/06 08:08:45;;;;;;;;;;;;;;;-4.94;90.55;98384.22;5055044;28;19932;-66
2022/02/06 08:11:14;;;;;;;;;;;;;;;-4.85;90.65;98390.72;5054995;28;19924;-66
2022/02/06 08:13:44;;;;;;;;;;;;;;;-4.95;91.04;98394.41;5055365;28;19925;-66
2022/02/06 08:16:10;;;;;;;;;;;;;;;-4.90;90.73;98390.03;5055005;28;19929;-62
2022/02/06 08:18:40;;;;;;;;;;;;;;;-4.93;90.34;98390.09;5054671;28;20371;-67
2022/02/06 08:21:07;;;;;;;;;;;;;;;-4.91;90.98;98386.63;5054775;28;19964;-61
2022/02/06 08:23:33;;;;;;;;;;;;;;;-4.89;90.18;98382.34;5054562;28;19924;-67
2022/02/06 08:26:00;;;;;;;;;;;;;;;-4.91;90.61;98381.56;5054686;28;19936;-64
2022/02/06 08:28:28;;;;;;;;;;;;;;;-4.90;90.41;98390.84;5054888;28;19924;-66
2022/02/06 08:30:55;;;;;;;;;;;;;;;-4.91;90.54;98378.22;5054502;28;19948;-68
2022/02/06 08:33:22;;;;;;;;;;;;;;;-4.89;90.60;98384.06;5054427;28;19925;-70
2022/02/06 08:35:49;;;;;;;;;;;;;;;-4.77;90.13;98375.28;5054311;28;19925;-69
2022/02/06 08:38:16;;;;;;;;;;;;;;;-4.76;89.47;98366.78;5054330;28;19932;-70
2022/02/06 08:40:42;;;;;;;;;;;;;;;-4.71;89.61;98354.78;5054322;28;19928;-70
2022/02/06 08:43:09;;;;;;;;;;;;;;;-4.62;89.52;98364.66;5054593;28;19928;-70
2022/02/06 08:45:38;;;;;;;;;;;;;;;-4.63;88.97;98360.44;5054350;28;19931;-69
2022/02/06 08:48:05;;;;;;;;;;;;;;;-4.66;89.17;98351.19;5054060;28;20345;-69
2022/02/06 08:50:32;;;;;;;;;;;;;;;-4.66;88.90;98355.47;5054071;28;19924;-71
2022/02/06 08:52:59;;;;;;;;;;;;;;;-4.65;88.82;98354.56;5054297;28;20251;-69
2022/02/06 08:55:26;;;;;;;;;;;;;;;-4.72;89.55;98350.59;5053989;28;19925;-70
2022/02/06 08:57:52;;;;;;;;;;;;;;;-4.65;88.86;98352.88;5053920;28;19925;-69
2022/02/06 09:00:20;;;;;;;;;;;;;;;-4.65;88.41;98347.81;5053963;28;20371;-63
2022/02/06 09:02:48;;;;;;;;;;;;;;;-4.65;89.53;98352.03;5054104;28;19924;-69
2022/02/06 09:05:15;;;;;;;;;;;;;;;-4.63;88.45;98335.88;5053937;28;19932;-68
2022/02/06 09:07:42;;;;;;;;;;;;;;;-4.55;88.30;98324.66;5053788;28;19929;-68
2022/02/06 09:10:09;;;;;;;;;;;;;;;-4.57;88.30;98316.25;5053913;28;19983;-68
2022/02/06 09:12:40;;;;;;;;;;;;;;;-4.57;88.88;98327.25;5053864;28;19932;-69
2022/02/06 09:15:07;;;;;;;;;;;;;;;-4.57;89.14;98332.34;5053597;28;19924;-68
2022/02/06 09:17:33;;;;;;;;;;;;;;;-4.58;87.64;98327.31;5053421;28;19925;-69
2022/02/06 09:20:01;;;;;;;;;;;;;;;-4.52;89.02;98327.94;5053367;28;19925;-67
2022/02/06 09:22:28;;;;;;;;;;;;;;;-4.57;88.37;98329.81;5053353;28;20295;-68
2022/02/06 09:24:54;;;;;;;;;;;;;;;-4.61;88.27;98323.97;5053590;28;19925;-68
2022/02/06 09:27:22;;;;;;;;;;;;;;;-4.65;88.52;98319.03;5053901;28;19932;-65
2022/02/06 09:29:49;;;;;;;;;;;;;;;-4.65;87.90;98311.44;5053653;28;19959;-70
2022/02/06 09:37:09;;;;;;;;;;;;;;;-4.63;87.27;98310.50;5051647;28;20012;-67
2022/02/06 09:39:39;;;;;;;;;;;;;;;-4.61;87.88;98300.31;5049130;28;19924;-67
2022/02/06 09:42:07;;;;;;;;;;;;;;;-4.60;88.14;98304.50;5052439;28;20375;-68
2022/02/06 09:44:33;;;;;;;;;;;;;;;-4.60;88.29;98296.88;5053089;28;20288;-68
2022/02/06 09:47:00;;;;;;;;;;;;;;;-4.63;87.29;98294.44;5053290;28;19925;-68
2022/02/06 09:49:27;;;;;;;;;;;;;;;-4.57;88.41;98299.34;5053072;28;20477;-69
2022/02/06 09:51:54;;;;;;;;;;;;;;;-4.58;87.63;98295.13;5052804;28;19931;-68
2022/02/06 09:54:23;;;;;;;;;;;;;;;-4.53;87.56;98300.88;5052710;28;19925;-68
2022/02/06 09:56:53;;;;;;;;;;;;;;;-4.46;88.17;98291.38;5052874;28;19931;-67
2022/02/06 09:59:21;;;;;;;;;;;;;;;-4.56;87.02;98282.41;5052819;28;19932;-66
2022/02/06 10:01:48;;;;;;;;;;;;;;;-4.52;87.89;98289.00;5052455;28;19931;-69
2022/02/06 10:04:18;;;;;;;;;;;;;;;-4.48;87.31;98273.66;5051760;28;19931;-68
2022/02/06 10:06:49;;;;;;;;;;;;;;;-4.47;86.37;98271.94;5052834;28;19932;-69
2022/02/06 10:09:16;;;;;;;;;;;;;;;-4.56;86.25;98280.69;5052618;28;20379;-66
2022/02/06 10:11:46;;;;;;;;;;;;;;;-4.55;86.93;98276.44;5052626;28;20477;-69
2022/02/06 10:14:13;;;;;;;;;;;;;;;-4.47;86.57;98265.16;5052846;28;20532;-69
2022/02/06 10:16:40;;;;;;;;;;;;;;;-4.40;87.75;98266.59;5052469;28;20367;-70
2022/02/06 10:19:07;;;;;;;;;;;;;;;-4.39;85.72;98254.75;5052594;28;19929;-68
2022/02/06 10:21:35;;;;;;;;;;;;;;;-4.38;86.33;98253.84;5052525;28;19928;-69
2022/02/06 10:24:07;;;;;;;;;;;;;;;-4.34;86.78;98250.34;5052498;28;19931;-68
2022/02/06 10:26:39;;;;;;;;;;;;;;;-4.35;86.34;98242.78;5052594;28;19956;-69
2022/02/06 10:29:23;;;;;;;;;;;;;;;-4.35;86.76;98248.66;5052764;28;19929;-69
2022/02/06 10:31:51;;;;;;;;;;;;;;;-4.33;86.93;98251.16;5052736;28;20100;-69
2022/02/06 10:34:21;;;;;;;;;;;;;;;-4.31;86.16;98250.22;5052515;28;19928;-67
2022/02/06 10:36:48;;;;;;;;;;;;;;;-4.31;85.74;98240.06;5052375;28;19976;-69
2022/02/06 10:39:17;;;;;;;;;;;;;;;-4.38;86.56;98246.25;5052361;28;20379;-69
2022/02/06 10:41:45;;;;;;;;;;;;;;;-4.43;86.58;98240.50;5052505;28;19945;-67
2022/02/06 10:44:13;;;;;;;;;;;;;;;-4.35;86.37;98237.69;5052025;28;20299;-69
2022/02/06 10:46:44;;;;;;;;;;;;;;;-4.26;86.49;98222.97;5052219;28;20032;-67
2022/02/06 10:49:13;;;;;;;;;;;;;;;-4.23;87.26;98222.84;5052287;28;19929;-69
2022/02/06 10:51:42;;;;;;;;;;;;;;;-4.19;84.98;98223.56;5052261;28;19925;-69
2022/02/06 10:54:10;;;;;;;;;;;;;;;-4.22;85.10;98219.41;5053159;28;19983;-69
2022/02/06 10:56:40;;;;;;;;;;;;;;;-4.30;85.36;98212.97;5056319;28;19925;-67
2022/02/06 10:59:08;;;;;;;;;;;;;;;-4.33;85.47;98200.41;5056181;28;19925;-69
2022/02/06 11:01:39;;;;;;;;;;;;;;;-4.38;85.21;98215.78;5056308;28;19928;-69
2022/02/06 11:04:17;;;;;;;;;;;;;;;-4.36;85.60;98208.13;5056177;28;19924;-69
2022/02/06 11:06:48;;;;;;;;;;;;;;;-4.21;86.35;98205.03;5056333;28;19986;-69
2022/02/06 11:09:25;;;;;;;;;;;;;;;-4.38;85.31;98208.16;5055993;28;19951;-70
2022/02/06 11:11:51;;;;;;;;;;;;;;;-4.38;85.12;98205.63;5055901;28;19929;-69
2022/02/06 11:14:22;;;;;;;;;;;;;;;-4.38;86.03;98213.25;5055898;28;19929;-69
2022/02/06 11:16:50;;;;;;;;;;;;;;;-4.46;85.40;98216.06;5055927;28;19924;-69
2022/02/06 11:19:18;;;;;;;;;;;;;;;-4.52;86.02;98226.41;5055921;28;20379;-69
2022/02/06 11:21:45;;;;;;;;;;;;;;;-4.46;86.97;98223.66;5055908;28;20272;-69
2022/02/06 11:24:18;;;;;;;;;;;;;;;-4.48;86.68;98220.34;5055776;28;19925;-69
2022/02/06 11:26:45;;;;;;;;;;;;;;;-4.51;86.12;98209.47;5055737;28;19960;-69
2022/02/06 11:29:11;;;;;;;;;;;;;;;-4.53;86.94;98203.63;5055147;28;20375;-69
2022/02/06 11:31:39;;;;;;;;;;;;;;;-4.48;85.77;98197.50;5055560;28;19925;-69
2022/02/06 11:34:09;;;;;;;;;;;;;;;-4.44;85.61;98193.97;5055387;28;19929;-69
2022/02/06 11:45:06;;;;;;;;;;;;;;;-4.32;85.91;98181.72;5055318;28;20295;-62
2022/02/06 11:47:38;;;;;;;;;;;;;;;-4.40;85.31;98182.00;5055269;28;19947;-69
2022/02/06 11:50:09;;;;;;;;;;;;;;;-4.43;86.41;98184.66;5055211;28;19925;-69
2022/02/06 11:52:48;;;;;;;;;;;;;;;-4.46;85.53;98175.44;5054981;28;19978;-69
2022/02/06 11:55:29;;;;;;;;;;;;;;;-4.62;85.97;98172.63;5054965;28;19932;-69
2022/02/06 11:58:11;;;;;;;;;;;;;;;-4.61;86.11;98156.50;5055326;28;19929;-62
2022/02/06 12:00:37;;;;;;;;;;;;;;;-4.57;86.10;98166.53;5054622;28;20397;-66
2022/02/06 12:03:12;;;;;;;;;;;;;;;-4.62;86.27;98151.50;5055110;28;19924;-69
2022/02/06 12:05:57;;;;;;;;;;;;;;;-4.53;85.75;98160.47;5054618;28;19925;-70
2022/02/06 12:08:23;;;;;;;;;;;;;;;-4.58;85.06;98158.09;5054848;28;19924;-64
2022/02/06 12:11:17;;;;;;;;;;;;;;;-4.63;85.71;98148.09;5054962;28;19925;-65
2022/02/06 12:13:44;;;;;;;;;;;;;;;-4.73;86.90;98156.09;5054921;28;19940;-64
2022/02/06 12:16:19;;;;;;;;;;;;;;;-4.73;86.02;98153.56;5054700;28;20028;-63
2022/02/06 12:18:45;;;;;;;;;;;;;;;-4.76;86.46;98144.34;5054776;28;19925;-69
2022/02/06 12:21:14;;;;;;;;;;;;;;;-4.69;86.85;98150.03;5054650;28;19925;-64
2022/02/06 12:23:42;;;;;;;;;;;;;;;-4.77;86.27;98142.69;5054559;28;19925;-69
2022/02/06 12:26:27;;;;;;;;;;;;;;;-4.75;86.69;98148.56;5054819;28;19975;-68
2022/02/06 12:28:55;;;;;;;;;;;;;;;-4.74;87.38;98139.22;5055134;28;19963;-61
2022/02/06 12:31:27;;;;;;;;;;;;;;;-4.78;86.83;98141.03;5054689;28;19925;-61
2022/02/06 12:33:59;;;;;;;;;;;;;;;-4.74;86.67;98146.84;5054515;28;19925;-68
2022/02/06 12:39:39;;;;;;;;;;;;;;;-4.87;87.56;98137.09;4992818;28;19932;-61
2022/02/06 12:42:10;;;;;;;;;;;;;;;-4.75;86.87;98138.41;4992760;28;19926;-60
2022/02/06 12:44:37;;;;;;;;;;;;;;;-4.76;86.82;98124.03;5021729;28;19925;-60
2022/02/06 12:47:07;;;;;;;;;;;;;;;-4.74;86.87;98114.69;5053992;28;19924;-61
2022/02/06 12:49:34;;;;;;;;;;;;;;;-4.69;86.04;98112.81;5054308;28;19931;-60
2022/02/06 12:52:03;;;;;;;;;;;;;;;-4.67;86.98;98090.75;5054397;28;19925;-64
2022/02/06 12:54:30;;;;;;;;;;;;;;;-4.62;86.65;98088.88;5054175;28;20269;-61
2022/02/06 12:56:57;;;;;;;;;;;;;;;-4.78;86.77;98090.28;5054287;28;19931;-66
2022/02/06 12:59:25;;;;;;;;;;;;;;;-4.77;87.98;98078.44;5054220;28;19929;-61
2022/02/06 13:01:54;;;;;;;;;;;;;;;-4.70;88.04;98073.09;5054322;28;19971;-67
2022/02/06 13:04:22;;;;;;;;;;;;;;;-4.65;86.43;98075.44;5054090;28;19932;-67
2022/02/06 13:06:51;;;;;;;;;;;;;;;-4.67;87.03;98074.69;5053541;28;20413;-61
2022/02/06 13:09:21;;;;;;;;;;;;;;;-4.70;87.67;98070.56;5053601;28;19925;-68
2022/02/06 13:11:52;;;;;;;;;;;;;;;-4.60;87.37;98071.88;5053695;28;19935;-61
2022/02/06 13:14:41;;;;;;;;;;;;;;;-4.63;86.65;98068.63;5053774;28;19931;-60
2022/02/06 13:17:17;;;;;;;;;;;;;;;-4.61;86.26;98064.31;5052461;28;20375;-62
2022/02/06 13:19:50;;;;;;;;;;;;;;;-4.77;87.39;98050.53;5053338;28;19971;-61
2022/02/06 13:22:29;;;;;;;;;;;;;;;-4.61;88.08;98047.38;5053493;28;20291;-67
2022/02/06 13:27:59;;;;;;;;;;;;;;;-4.67;88.04;98040.00;5023307;28;20010;-60
2022/02/06 13:30:43;;;;;;;;;;;;;;;-4.68;87.70;98028.19;5053615;28;19929;-60
2022/02/06 13:33:15;;;;;;;;;;;;;;;-4.73;87.96;98039.38;5053068;28;20393;-61
2022/02/06 13:35:52;;;;;;;;;;;;;;;-4.73;87.82;98034.31;5052983;28;20330;-61
2022/02/06 13:38:19;;;;;;;;;;;;;;;-4.72;87.76;98028.38;5052977;28;19929;-61
2022/02/06 13:40:49;;;;;;;;;;;;;;;-4.76;87.96;98024.28;5052938;28;20031;-65
2022/02/06 13:43:18;;;;;;;;;;;;;;;-4.77;88.04;98022.66;5052923;28;19925;-61
2022/02/06 13:45:46;;;;;;;;;;;;;;;-4.90;89.34;98030.69;5052918;28;19959;-61
2022/02/06 13:48:14;;;;;;;;;;;;;;;-4.97;89.19;98016.56;5053001;28;19925;-64
2022/02/06 13:50:47;;;;;;;;;;;;;;;-4.87;88.69;98001.84;5052879;28;19925;-61
2022/02/06 13:53:14;;;;;;;;;;;;;;;-4.99;90.10;98010.72;5052777;28;19925;-69
2022/02/06 13:55:45;;;;;;;;;;;;;;;-4.85;89.63;97998.38;5052585;28;20398;-61
2022/02/06 13:58:14;;;;;;;;;;;;;;;-4.81;88.63;98009.22;5052809;28;19925;-61
2022/02/06 14:00:52;;;;;;;;;;;;;;;-4.90;89.66;98002.78;5052921;28;19960;-68
2022/02/06 14:03:19;;;;;;;;;;;;;;;-4.96;89.69;97999.63;5052665;28;19925;-61
2022/02/06 14:05:48;;;;;;;;;;;;;;;-4.98;90.39;97998.88;5052735;28;20402;-67
2022/02/06 14:08:17;;;;;;;;;;;;;;;-4.92;89.12;97983.44;5052518;28;19932;-68
2022/02/06 14:10:49;;;;;;;;;;;;;;;-5.11;90.92;97983.25;5052907;28;19983;-60
2022/02/06 14:13:23;;;;;;;;;;;;;;;-5.05;90.26;97978.81;5051411;28;19978;-65
2022/02/06 14:15:50;;;;;;;;;;;;;;;-5.03;90.65;97977.06;5036019;28;19926;-66
2022/02/06 14:18:17;;;;;;;;;;;;;;;-4.97;90.27;97972.63;5052384;28;19924;-64
2022/02/06 14:20:57;;;;;;;;;;;;;;;-5.00;90.62;97972.75;5052632;28;19928;-62
2022/02/06 14:23:23;;;;;;;;;;;;;;;-4.98;90.71;97963.34;5052557;28;20350;-62
2022/02/06 14:25:50;;;;;;;;;;;;;;;-5.07;91.14;97977.22;5052270;28;20401;-69
2022/02/06 14:28:17;;;;;;;;;;;;;;;-4.98;91.75;97973.50;5052363;28;19925;-67
2022/02/06 14:30:46;;;;;;;;;;;;;;;-4.98;91.38;97958.28;5052483;28;19928;-68
2022/02/06 14:33:14;;;;;;;;;;;;;;;-4.88;91.34;97968.06;5052694;28;19932;-64
2022/02/06 14:35:42;;;;;;;;;;;;;;;-5.00;91.73;97968.50;5052286;28;20371;-63